Time;durP1;ratioP1;P1;durP2;ratioP2;P2;SDS_P1;SDS_P2;PMS_P1;PMS_P2;Temp;Humidity;BMP_temperature;BMP_pressure;BME280_temperature;BME280_humidity;BME280_pressure;Samples;Min_cycle;Max_cycle;Signal;HPM_P1;HPM_P2
2023/03/17 00:01:19;;;;;;;3.53;1.23;;;7.50;99.90;;;;;;5074657;28;20163;-71
2023/03/17 00:03:48;;;;;;;3.05;1.20;;;7.50;99.90;;;;;;5052736;28;20422;-72
2023/03/17 00:06:32;;;;;;;3.95;1.00;;;7.50;99.90;;;;;;5073665;28;20454;-71
2023/03/17 00:08:58;;;;;;;1.70;1.10;;;7.50;99.90;;;;;;5070239;28;20497;-72
2023/03/17 00:11:26;;;;;;;1.40;1.00;;;7.50;99.90;;;;;;5068711;28;20039;-71
2023/03/17 00:13:52;;;;;;;2.63;1.17;;;7.50;99.90;;;;;;5088371;28;20047;-71
2023/03/17 00:16:24;;;;;;;3.05;1.20;;;7.50;99.90;;;;;;5075618;28;20036;-71
2023/03/17 00:18:51;;;;;;;2.53;0.93;;;7.50;99.90;;;;;;5069547;28;20039;-71
2023/03/17 00:21:26;;;;;;;2.17;1.15;;;7.60;99.90;;;;;;5073986;28;20659;-71
2023/03/17 00:23:52;;;;;;;2.05;0.88;;;7.50;99.90;;;;;;5072737;28;20040;-71
2023/03/17 00:26:19;;;;;;;2.72;1.00;;;7.60;99.90;;;;;;5103996;28;20036;-71
2023/03/17 00:28:44;;;;;;;2.20;0.85;;;7.50;99.90;;;;;;5070857;28;20394;-71
2023/03/17 00:31:32;;;;;;;4.38;1.13;;;7.50;99.90;;;;;;5071124;28;20032;-71
2023/03/17 00:33:59;;;;;;;4.18;1.13;;;7.60;99.90;;;;;;5073652;28;20470;-71
2023/03/17 00:36:30;;;;;;;1.90;0.90;;;7.50;99.90;;;;;;5066517;28;20067;-71
2023/03/17 00:38:57;;;;;;;1.92;1.08;;;7.60;99.90;;;;;;5072287;28;20494;-71
2023/03/17 00:41:22;;;;;;;2.17;1.10;;;7.60;99.90;;;;;;5070178;28;20035;-72
2023/03/17 00:43:49;;;;;;;1.77;0.93;;;7.50;99.90;;;;;;5069553;28;21450;-71
2023/03/17 00:46:25;;;;;;;2.03;0.88;;;7.50;99.90;;;;;;5061818;28;20492;-71
2023/03/17 00:48:51;;;;;;;1.17;0.68;;;7.60;99.90;;;;;;5065497;28;20593;-71
2023/03/17 00:51:17;;;;;;;1.77;0.85;;;7.60;99.90;;;;;;5067738;28;20079;-71
2023/03/17 00:53:43;;;;;;;3.20;1.30;;;7.50;99.90;;;;;;5064697;28;20078;-71
2023/03/17 00:56:14;;;;;;;3.33;0.93;;;7.50;99.90;;;;;;5051129;28;20041;-72
2023/03/17 00:58:40;;;;;;;2.65;1.13;;;7.50;99.90;;;;;;5068296;28;20145;-71
2023/03/17 01:01:07;;;;;;;3.40;1.35;;;7.50;99.90;;;;;;5068903;28;20078;-71
2023/03/17 01:03:33;;;;;;;2.00;1.02;;;7.50;99.90;;;;;;5082452;28;20041;-72
2023/03/17 01:06:01;;;;;;;2.58;1.17;;;7.50;99.90;;;;;;5069162;28;20047;-72
2023/03/17 01:08:28;;;;;;;4.00;1.35;;;7.50;99.90;;;;;;5079938;28;20769;-71
2023/03/17 01:10:55;;;;;;;2.88;1.02;;;7.50;99.90;;;;;;5102582;27;20278;-72
2023/03/17 01:13:21;;;;;;;1.65;0.85;;;7.50;99.90;;;;;;5058714;28;20048;-71
2023/03/17 01:15:49;;;;;;;3.55;1.23;;;7.50;99.90;;;;;;5076439;28;20118;-71
2023/03/17 01:18:17;;;;;;;2.15;0.90;;;7.50;99.90;;;;;;5075510;28;20044;-71
2023/03/17 01:20:43;;;;;;;3.90;1.30;;;7.50;99.90;;;;;;5069821;28;20036;-72
2023/03/17 01:23:09;;;;;;;2.85;0.82;;;7.50;99.90;;;;;;5075645;28;20090;-71
2023/03/17 01:25:37;;;;;;;2.60;1.13;;;7.50;99.90;;;;;;5072086;28;20445;-71
2023/03/17 01:28:04;;;;;;;3.10;1.15;;;7.50;99.90;;;;;;5057156;28;20068;-71
2023/03/17 01:30:38;;;;;;;3.55;1.17;;;7.50;99.90;;;;;;5073298;28;20067;-71
2023/03/17 01:33:05;;;;;;;2.50;1.05;;;7.50;99.90;;;;;;5093762;27;20271;-71
2023/03/17 01:35:31;;;;;;;2.35;1.00;;;7.50;99.90;;;;;;5076122;28;20401;-71
2023/03/17 01:37:58;;;;;;;3.97;1.38;;;7.50;99.90;;;;;;5104279;27;20051;-71
2023/03/17 01:40:37;;;;;;;2.45;1.13;;;7.50;99.90;;;;;;5069317;28;20066;-71
2023/03/17 01:43:09;;;;;;;1.75;0.90;;;7.50;99.90;;;;;;5074614;28;20041;-71
2023/03/17 01:46:15;;;;;;;2.95;1.10;;;7.50;99.90;;;;;;5073359;28;20055;-71
2023/03/17 01:48:52;;;;;;;3.00;1.20;;;7.50;99.90;;;;;;5072884;28;20040;-71
2023/03/17 01:51:29;;;;;;;1.65;0.98;;;7.50;99.90;;;;;;5086653;28;20949;-71
2023/03/17 01:53:55;;;;;;;2.30;1.15;;;7.50;99.90;;;;;;5102673;27;20436;-71
2023/03/17 01:56:22;;;;;;;2.60;1.10;;;7.50;99.90;;;;;;5076982;28;20028;-71
2023/03/17 01:58:51;;;;;;;2.17;0.93;;;7.50;99.90;;;;;;5073955;28;20036;-71
2023/03/17 02:01:20;;;;;;;3.53;1.27;;;7.50;99.90;;;;;;5073603;28;20109;-71
2023/03/17 02:03:46;;;;;;;3.22;1.08;;;7.50;99.90;;;;;;5055799;28;20032;-71
2023/03/17 02:06:12;;;;;;;1.83;0.75;;;7.50;99.90;;;;;;5074905;28;20040;-72
2023/03/17 02:08:38;;;;;;;1.60;1.00;;;7.60;99.90;;;;;;5069083;28;20575;-71
2023/03/17 02:11:03;;;;;;;1.60;0.98;;;7.60;99.90;;;;;;5072180;28;20059;-71
2023/03/17 02:13:30;;;;;;;2.75;1.00;;;7.60;99.90;;;;;;5093382;28;20044;-71
2023/03/17 02:15:55;;;;;;;3.85;1.20;;;7.60;99.90;;;;;;5076174;28;20031;-71
2023/03/17 02:18:22;;;;;;;2.58;1.40;;;7.60;99.90;;;;;;5074567;28;20032;-71
2023/03/17 02:20:48;;;;;;;2.75;1.15;;;7.60;99.90;;;;;;5073252;28;20040;-71
2023/03/17 02:23:23;;;;;;;1.70;0.85;;;7.60;99.90;;;;;;5075175;28;20508;-71
2023/03/17 02:25:50;;;;;;;2.67;1.02;;;7.60;99.90;;;;;;5072481;28;20067;-72
2023/03/17 02:28:21;;;;;;;2.47;1.20;;;7.60;99.90;;;;;;5076514;28;20036;-71
2023/03/17 02:30:47;;;;;;;1.88;0.90;;;7.60;99.90;;;;;;5071205;28;20455;-71
2023/03/17 02:33:13;;;;;;;3.25;1.00;;;7.50;99.90;;;;;;5079063;28;20032;-71
2023/03/17 02:35:40;;;;;;;2.95;0.90;;;7.50;99.90;;;;;;5077299;28;20043;-71
2023/03/17 02:38:05;;;;;;;1.92;1.10;;;7.60;99.90;;;;;;5065931;28;20044;-71
2023/03/17 02:40:32;;;;;;;2.30;1.20;;;7.50;99.90;;;;;;5079701;28;20507;-71
2023/03/17 02:42:58;;;;;;;3.50;1.10;;;7.50;99.90;;;;;;5079286;28;20075;-71
2023/03/17 02:45:24;;;;;;;1.67;1.02;;;7.50;99.90;;;;;;5058248;28;20448;-71
2023/03/17 02:47:51;;;;;;;2.00;0.90;;;7.50;99.90;;;;;;5073180;28;20052;-71
2023/03/17 02:50:21;;;;;;;2.42;1.20;;;7.50;99.90;;;;;;5067781;28;20069;-71
2023/03/17 02:52:46;;;;;;;1.35;0.90;;;7.60;99.90;;;;;;5054967;28;20028;-71
2023/03/17 02:55:13;;;;;;;2.70;1.10;;;7.60;99.90;;;;;;5076906;28;20028;-71
2023/03/17 02:57:39;;;;;;;2.95;1.27;;;7.60;99.90;;;;;;5086494;28;20071;-71
2023/03/17 03:00:05;;;;;;;2.45;0.95;;;7.60;99.90;;;;;;5056456;28;21500;-71
2023/03/17 03:02:30;;;;;;;2.28;1.00;;;7.60;99.90;;;;;;5075990;28;20044;-71
2023/03/17 03:04:56;;;;;;;2.88;1.33;;;7.60;99.90;;;;;;5070741;28;20041;-71
2023/03/17 03:07:22;;;;;;;2.20;0.90;;;7.60;99.90;;;;;;5053876;28;20193;-71
2023/03/17 03:09:48;;;;;;;2.50;1.10;;;7.60;99.90;;;;;;5075769;28;20038;-71
2023/03/17 03:12:13;;;;;;;1.48;0.80;;;7.60;99.90;;;;;;5072718;28;20460;-71
2023/03/17 03:14:39;;;;;;;1.58;0.88;;;7.50;99.90;;;;;;5069199;28;20051;-71
2023/03/17 03:17:05;;;;;;;5.03;1.25;;;7.50;99.90;;;;;;5072732;28;20048;-71
2023/03/17 03:19:31;;;;;;;1.65;1.08;;;7.50;99.90;;;;;;5051636;28;20228;-71
2023/03/17 03:21:56;;;;;;;9.30;1.17;;;7.50;99.90;;;;;;5073875;28;20156;-71
2023/03/17 03:24:22;;;;;;;1.98;0.90;;;7.50;99.90;;;;;;5065521;28;20051;-71
2023/03/17 03:26:47;;;;;;;3.25;1.20;;;7.60;99.90;;;;;;5075253;28;20055;-71
2023/03/17 03:29:13;;;;;;;1.65;0.95;;;7.60;99.90;;;;;;5070683;28;20042;-71
2023/03/17 03:31:39;;;;;;;2.58;1.35;;;7.50;99.90;;;;;;5073467;28;20032;-71
2023/03/17 03:34:05;;;;;;;2.03;1.13;;;7.50;99.90;;;;;;5069647;28;20046;-71
2023/03/17 03:36:31;;;;;;;2.67;0.95;;;7.50;99.90;;;;;;5085678;28;20478;-71
2023/03/17 03:38:57;;;;;;;1.73;0.90;;;7.60;99.90;;;;;;5067448;28;20051;-71
2023/03/17 03:41:22;;;;;;;1.27;0.80;;;7.60;99.90;;;;;;5072409;28;20541;-71
2023/03/17 03:43:48;;;;;;;2.35;1.20;;;7.50;99.90;;;;;;5072741;28;20038;-71
2023/03/17 03:46:14;;;;;;;1.83;0.88;;;7.50;99.90;;;;;;5071863;28;20033;-71
2023/03/17 03:48:40;;;;;;;2.80;1.10;;;7.50;99.90;;;;;;5070005;28;20065;-71
2023/03/17 03:51:05;;;;;;;2.55;1.20;;;7.50;99.90;;;;;;5064379;28;20040;-71
2023/03/17 03:53:31;;;;;;;2.17;1.20;;;7.50;99.90;;;;;;5070767;28;20059;-71
2023/03/17 03:55:57;;;;;;;2.67;1.13;;;7.50;99.90;;;;;;5055892;28;20047;-72
2023/03/17 03:58:22;;;;;;;3.40;1.50;;;7.50;99.90;;;;;;5076249;28;20553;-71
2023/03/17 04:00:48;;;;;;;2.65;1.08;;;7.50;99.90;;;;;;5070685;28;20028;-71
2023/03/17 04:03:14;;;;;;;3.70;1.00;;;7.50;99.90;;;;;;5070079;28;20048;-71
2023/03/17 04:05:40;;;;;;;2.50;1.08;;;7.50;99.90;;;;;;5066400;28;20421;-71
2023/03/17 04:08:06;;;;;;;2.17;0.95;;;7.50;99.90;;;;;;5073337;28;20040;-71
2023/03/17 04:10:32;;;;;;;2.80;1.20;;;7.50;99.90;;;;;;5068549;28;20044;-71
2023/03/17 04:12:58;;;;;;;2.05;0.70;;;7.50;99.90;;;;;;5056118;28;20051;-71
2023/03/17 04:15:24;;;;;;;2.22;1.13;;;7.50;99.90;;;;;;5068418;28;20051;-71
2023/03/17 04:17:49;;;;;;;3.45;1.30;;;7.50;99.90;;;;;;5068875;28;20502;-71
2023/03/17 04:20:15;;;;;;;3.55;1.00;;;7.50;99.90;;;;;;5066083;28;20041;-71
2023/03/17 04:22:42;;;;;;;1.83;0.95;;;7.50;99.90;;;;;;5067923;28;20549;-72
2023/03/17 04:25:09;;;;;;;2.10;0.90;;;7.50;99.90;;;;;;5088540;28;20041;-71
2023/03/17 04:27:35;;;;;;;1.98;0.98;;;7.50;99.90;;;;;;5071684;28;20036;-71
2023/03/17 04:30:01;;;;;;;2.53;1.25;;;7.50;99.90;;;;;;5071380;28;20534;-71
2023/03/17 04:32:27;;;;;;;3.33;1.55;;;7.50;99.90;;;;;;5069624;28;20095;-72
2023/03/17 04:34:52;;;;;;;3.58;1.00;;;7.50;99.90;;;;;;5068302;28;20072;-71
2023/03/17 04:37:18;;;;;;;2.38;1.17;;;7.50;99.90;;;;;;5070139;28;20040;-71
2023/03/17 04:39:44;;;;;;;3.65;1.30;;;7.50;99.90;;;;;;5072648;28;20093;-71
2023/03/17 04:42:10;;;;;;;1.40;0.73;;;7.50;99.90;;;;;;5057991;28;20286;-72
2023/03/17 04:44:35;;;;;;;2.35;1.05;;;7.50;99.90;;;;;;5069377;28;20036;-71
2023/03/17 04:47:01;;;;;;;2.35;0.80;;;7.50;99.90;;;;;;5074694;28;20047;-71
2023/03/17 04:49:27;;;;;;;2.17;1.00;;;7.60;99.90;;;;;;5062024;28;20044;-71
2023/03/17 04:51:52;;;;;;;2.03;1.00;;;7.50;99.90;;;;;;5088836;28;20244;-71
2023/03/17 04:54:18;;;;;;;4.20;0.95;;;7.50;99.90;;;;;;5079656;28;20477;-71
2023/03/17 04:56:44;;;;;;;1.95;0.90;;;7.50;99.90;;;;;;5074419;28;20433;-71
2023/03/17 04:59:10;;;;;;;2.78;1.38;;;7.50;99.90;;;;;;5077442;28;20044;-71
2023/03/17 05:01:36;;;;;;;3.55;1.15;;;7.50;99.90;;;;;;5075760;28;20121;-71
2023/03/17 05:04:01;;;;;;;4.18;1.17;;;7.50;99.90;;;;;;5070716;28;20072;-71
2023/03/17 05:06:27;;;;;;;1.85;1.05;;;7.50;99.90;;;;;;5075863;28;20130;-71
2023/03/17 05:08:52;;;;;;;3.10;1.20;;;7.60;99.90;;;;;;5071442;28;20127;-71
2023/03/17 05:11:18;;;;;;;1.85;0.90;;;7.60;99.90;;;;;;5075225;28;20345;-71
2023/03/17 05:13:44;;;;;;;2.15;0.82;;;7.60;99.90;;;;;;5071900;28;20044;-71
2023/03/17 05:16:10;;;;;;;2.22;0.90;;;7.60;99.90;;;;;;5095221;27;20496;-71
2023/03/17 05:18:37;;;;;;;2.47;0.85;;;7.60;99.90;;;;;;5076578;28;20028;-71
2023/03/17 05:21:05;;;;;;;2.45;0.85;;;7.60;99.90;;;;;;5069162;28;20044;-71
2023/03/17 05:23:30;;;;;;;1.50;0.80;;;7.60;99.90;;;;;;5076580;28;20052;-71
2023/03/17 05:25:56;;;;;;;3.38;1.08;;;7.60;99.90;;;;;;5071952;28;20039;-72
2023/03/17 05:28:23;;;;;;;2.17;0.80;;;7.60;99.90;;;;;;5051748;28;20127;-71
2023/03/17 05:30:49;;;;;;;2.00;1.20;;;7.60;99.90;;;;;;5075475;28;20083;-71
2023/03/17 05:33:15;;;;;;;1.90;0.90;;;7.60;99.90;;;;;;5078167;28;20044;-72
2023/03/17 05:35:42;;;;;;;2.05;0.90;;;7.60;99.90;;;;;;5076238;28;20264;-71
2023/03/17 05:38:09;;;;;;;2.85;1.15;;;7.60;99.90;;;;;;5073244;28;20413;-71
2023/03/17 05:40:35;;;;;;;2.50;0.98;;;7.60;99.90;;;;;;5078776;28;20036;-71
2023/03/17 05:43:02;;;;;;;2.22;0.90;;;7.60;99.90;;;;;;5053330;28;20528;-71
2023/03/17 05:45:29;;;;;;;1.80;1.05;;;7.60;99.90;;;;;;5059549;28;20071;-71
2023/03/17 05:47:55;;;;;;;1.75;0.98;;;7.50;99.90;;;;;;5092690;28;20486;-71
2023/03/17 05:50:21;;;;;;;2.15;1.08;;;7.60;99.90;;;;;;5055155;28;20036;-71
2023/03/17 05:52:47;;;;;;;1.55;0.90;;;7.50;99.90;;;;;;5108363;27;20394;-71
2023/03/17 05:55:13;;;;;;;3.42;1.10;;;7.50;99.90;;;;;;5076937;28;20498;-71
2023/03/17 05:57:39;;;;;;;2.65;1.00;;;7.40;99.90;;;;;;5079149;28;20051;-71
2023/03/17 06:00:06;;;;;;;2.00;1.10;;;7.50;99.90;;;;;;5072996;28;20554;-71
2023/03/17 06:02:32;;;;;;;2.53;1.08;;;7.40;99.90;;;;;;5073953;28;20410;-71
2023/03/17 06:04:57;;;;;;;1.42;1.00;;;7.40;99.90;;;;;;5050856;28;20037;-71
2023/03/17 06:07:23;;;;;;;3.95;1.00;;;7.50;99.90;;;;;;5074618;28;20035;-71
2023/03/17 06:09:49;;;;;;;3.45;1.00;;;7.50;99.90;;;;;;5074632;28;20045;-71
2023/03/17 06:12:15;;;;;;;2.65;1.08;;;7.50;99.90;;;;;;5074742;28;20051;-72
2023/03/17 06:14:40;;;;;;;1.85;0.90;;;7.50;99.90;;;;;;5068136;28;20036;-71
2023/03/17 06:17:07;;;;;;;2.80;1.00;;;7.50;99.90;;;;;;5056541;28;20954;-71
2023/03/17 06:19:32;;;;;;;2.40;1.00;;;7.60;99.90;;;;;;5070342;28;20036;-71
2023/03/17 06:21:58;;;;;;;4.13;1.05;;;7.60;99.90;;;;;;5054789;28;20547;-71
2023/03/17 06:24:24;;;;;;;2.38;1.10;;;7.60;99.90;;;;;;5069509;28;20043;-71
2023/03/17 06:26:51;;;;;;;1.90;1.00;;;7.60;99.90;;;;;;5055709;28;20050;-71
2023/03/17 06:29:18;;;;;;;2.25;1.30;;;7.60;99.90;;;;;;5072840;28;21568;-71
2023/03/17 06:31:49;;;;;;;2.38;1.02;;;7.70;99.90;;;;;;5105596;27;20043;-71
2023/03/17 06:34:18;;;;;;;2.17;1.00;;;7.70;99.90;;;;;;5075207;28;20472;-72
2023/03/17 06:36:44;;;;;;;2.03;0.90;;;7.70;99.90;;;;;;5071415;28;20036;-71
2023/03/17 06:39:14;;;;;;;1.70;0.80;;;7.70;99.90;;;;;;5070116;28;20040;-71
2023/03/17 06:41:40;;;;;;;1.52;0.93;;;7.70;99.90;;;;;;5069267;28;20048;-71
2023/03/17 06:44:07;;;;;;;2.15;0.95;;;7.70;99.90;;;;;;5073710;28;21634;-71
2023/03/17 06:46:33;;;;;;;3.35;0.90;;;7.80;99.90;;;;;;5087494;28;20037;-71
2023/03/17 06:49:00;;;;;;;2.30;1.00;;;7.80;99.90;;;;;;5071921;28;20041;-71
2023/03/17 06:51:26;;;;;;;4.78;1.05;;;7.80;99.90;;;;;;5069320;28;20044;-71
2023/03/17 06:53:51;;;;;;;2.78;1.15;;;7.80;99.90;;;;;;5070971;28;20032;-71
2023/03/17 06:56:17;;;;;;;3.50;0.98;;;7.80;99.90;;;;;;5074903;28;20044;-71
2023/03/17 06:58:42;;;;;;;2.22;1.20;;;7.80;99.90;;;;;;5071167;28;20226;-71
2023/03/17 07:01:08;;;;;;;1.60;0.88;;;7.90;99.90;;;;;;5075574;28;20033;-71
2023/03/17 07:03:34;;;;;;;7.80;1.02;;;7.90;99.90;;;;;;5070502;28;20040;-71
2023/03/17 07:06:00;;;;;;;2.33;1.20;;;7.90;99.90;;;;;;5056422;28;20082;-71
2023/03/17 07:08:29;;;;;;;3.08;1.15;;;7.90;99.90;;;;;;5072272;28;20448;-71
2023/03/17 07:10:56;;;;;;;3.05;1.23;;;7.90;99.90;;;;;;5067709;28;20036;-73
2023/03/17 07:13:22;;;;;;;2.80;1.50;;;7.90;99.90;;;;;;5075335;28;20060;-72
2023/03/17 07:15:48;;;;;;;4.05;1.50;;;8.00;99.90;;;;;;5071674;28;20032;-71
2023/03/17 07:18:14;;;;;;;2.47;1.27;;;7.90;99.90;;;;;;5069401;28;20032;-72
2023/03/17 07:20:40;;;;;;;2.58;1.02;;;8.00;99.90;;;;;;5082401;28;20459;-71
2023/03/17 07:23:06;;;;;;;2.30;1.25;;;8.00;99.90;;;;;;5066773;28;20054;-71
2023/03/17 07:25:35;;;;;;;2.63;1.00;;;8.10;99.90;;;;;;5081872;28;20042;-71
2023/03/17 07:28:01;;;;;;;3.70;1.10;;;8.10;99.90;;;;;;5065829;28;20048;-71
2023/03/17 07:30:27;;;;;;;3.60;1.25;;;8.10;99.90;;;;;;5067564;28;20044;-72
2023/03/17 07:32:53;;;;;;;3.05;1.00;;;8.10;99.90;;;;;;5049716;28;20039;-71
2023/03/17 07:35:19;;;;;;;4.72;1.40;;;8.10;99.90;;;;;;5067483;28;20049;-72
2023/03/17 07:37:46;;;;;;;3.17;1.40;;;8.20;99.90;;;;;;5068983;28;20934;-72
2023/03/17 07:40:12;;;;;;;2.72;1.25;;;8.20;99.90;;;;;;5047140;28;20044;-71
2023/03/17 07:42:37;;;;;;;2.65;1.25;;;8.20;99.90;;;;;;5070435;28;20104;-72
2023/03/17 07:45:04;;;;;;;2.53;1.10;;;8.30;99.90;;;;;;5097932;27;20533;-71
2023/03/17 07:47:30;;;;;;;2.40;1.10;;;8.30;99.90;;;;;;5082195;28;20071;-71
2023/03/17 07:49:56;;;;;;;3.05;1.20;;;8.40;99.90;;;;;;5083886;28;20071;-71
2023/03/17 07:52:21;;;;;;;3.10;1.45;;;8.40;99.90;;;;;;5067793;28;20044;-71
2023/03/17 07:54:47;;;;;;;2.72;1.38;;;8.40;99.90;;;;;;5064158;28;20032;-71
2023/03/17 07:57:15;;;;;;;2.97;1.25;;;8.40;99.90;;;;;;5068176;28;20486;-71
2023/03/17 07:59:40;;;;;;;4.50;1.30;;;8.50;99.90;;;;;;5045463;28;20089;-72
2023/03/17 08:02:07;;;;;;;4.03;1.20;;;8.50;99.90;;;;;;5071893;28;20036;-71
2023/03/17 08:04:33;;;;;;;3.22;1.38;;;8.50;99.90;;;;;;5067459;28;20043;-71
2023/03/17 08:07:00;;;;;;;4.43;1.70;;;8.60;99.90;;;;;;5062199;28;20032;-71
2023/03/17 08:09:25;;;;;;;3.03;1.05;;;8.60;99.90;;;;;;5066484;28;20542;-71
2023/03/17 08:11:51;;;;;;;3.47;1.25;;;8.60;99.90;;;;;;5052099;28;20051;-71
2023/03/17 08:14:17;;;;;;;2.30;1.10;;;8.70;99.90;;;;;;5062743;28;20082;-72
2023/03/17 08:16:42;;;;;;;2.47;1.33;;;8.80;99.90;;;;;;5067363;28;20032;-71
2023/03/17 08:19:09;;;;;;;2.22;1.10;;;8.80;99.90;;;;;;5084665;28;20073;-72
2023/03/17 08:21:35;;;;;;;4.40;0.95;;;8.90;99.90;;;;;;5065340;28;20032;-71
2023/03/17 08:24:03;;;;;;;3.17;1.10;;;8.90;99.90;;;;;;5068336;28;20086;-71
2023/03/17 08:26:28;;;;;;;3.95;1.35;;;9.00;99.90;;;;;;5071838;28;20073;-72
2023/03/17 08:28:55;;;;;;;3.75;1.45;;;9.00;99.90;;;;;;5084382;28;20040;-72
2023/03/17 08:31:21;;;;;;;4.50;1.48;;;9.10;99.90;;;;;;5068045;28;20071;-72
2023/03/17 08:33:52;;;;;;;2.28;1.08;;;9.10;99.90;;;;;;5065665;28;21212;-72
2023/03/17 08:36:19;;;;;;;1.92;1.13;;;9.20;99.90;;;;;;5064635;28;20393;-72
2023/03/17 08:38:46;;;;;;;3.35;1.23;;;9.20;99.90;;;;;;5067503;28;20133;-72
2023/03/17 08:41:15;;;;;;;2.85;1.17;;;9.20;99.90;;;;;;5071406;28;20545;-72
2023/03/17 08:43:42;;;;;;;2.72;1.40;;;9.30;99.90;;;;;;5083364;28;20539;-71
2023/03/17 08:46:29;;;;;;;2.35;1.20;;;9.40;99.90;;;;;;5096137;28;20048;-72
2023/03/17 08:48:56;;;;;;;2.38;1.20;;;9.40;99.90;;;;;;5072796;28;20055;-71
2023/03/17 08:51:30;;;;;;;2.45;1.10;;;9.50;99.90;;;;;;5069538;28;20040;-72
2023/03/17 08:53:57;;;;;;;2.78;1.30;;;9.50;99.90;;;;;;5055400;28;20036;-71
2023/03/17 08:56:23;;;;;;;3.15;1.38;;;9.60;99.90;;;;;;5068201;28;20040;-71
2023/03/17 08:58:49;;;;;;;3.45;1.50;;;9.70;99.90;;;;;;5047391;28;20263;-72
2023/03/17 09:01:15;;;;;;;3.13;1.60;;;9.70;99.90;;;;;;5067055;28;20052;-72
2023/03/17 09:03:42;;;;;;;3.72;1.10;;;9.80;99.90;;;;;;5071147;28;20062;-72
2023/03/17 09:06:10;;;;;;;3.72;1.35;;;9.80;99.90;;;;;;5047316;28;20059;-72
2023/03/17 09:08:38;;;;;;;3.45;1.42;;;9.90;99.90;;;;;;5047077;28;20033;-71
2023/03/17 09:11:04;;;;;;;2.90;1.33;;;9.90;99.90;;;;;;5065495;28;20398;-72
2023/03/17 09:13:32;;;;;;;2.65;1.15;;;9.90;99.90;;;;;;5066884;28;20525;-72
2023/03/17 09:15:58;;;;;;;3.55;1.30;;;10.00;99.90;;;;;;5068016;28;20033;-71
2023/03/17 09:18:24;;;;;;;2.65;1.20;;;10.00;99.90;;;;;;5063848;28;20044;-71
2023/03/17 09:20:50;;;;;;;3.05;1.15;;;10.00;99.90;;;;;;5068109;28;20098;-72
2023/03/17 09:23:15;;;;;;;3.33;1.50;;;10.10;99.90;;;;;;5048485;28;20037;-72
2023/03/17 09:25:42;;;;;;;3.92;1.70;;;10.20;99.90;;;;;;5068193;28;20055;-72
2023/03/17 09:28:10;;;;;;;2.25;1.13;;;10.20;99.90;;;;;;5072134;28;20454;-71
2023/03/17 09:30:36;;;;;;;4.78;1.77;;;10.30;99.90;;;;;;5059181;28;20425;-72
2023/03/17 09:33:03;;;;;;;4.28;1.58;;;10.40;99.90;;;;;;5082875;28;20032;-71
2023/03/17 09:35:30;;;;;;;2.58;1.33;;;10.40;99.90;;;;;;5101676;27;20490;-71
2023/03/17 09:37:56;;;;;;;3.40;1.48;;;10.40;99.90;;;;;;5073004;28;20246;-71
2023/03/17 09:40:31;;;;;;;2.88;1.60;;;10.50;99.90;;;;;;5066697;28;20098;-71
2023/03/17 09:43:08;;;;;;;3.60;1.60;;;10.60;99.90;;;;;;5070252;28;20062;-71
2023/03/17 09:45:39;;;;;;;3.60;1.60;;;10.70;99.90;;;;;;5052828;28;20040;-71
2023/03/17 09:48:16;;;;;;;3.55;1.80;;;10.70;99.90;;;;;;5102021;27;20040;-71
2023/03/17 09:50:52;;;;;;;2.97;1.30;;;10.70;99.90;;;;;;5099994;27;20040;-71
2023/03/17 09:53:26;;;;;;;3.88;1.58;;;10.80;99.90;;;;;;5072350;28;20040;-72
2023/03/17 09:55:56;;;;;;;3.95;1.50;;;10.80;99.90;;;;;;5063997;28;20043;-72
2023/03/17 09:58:30;;;;;;;3.65;1.67;;;10.90;99.90;;;;;;5065983;28;20063;-72
2023/03/17 10:00:55;;;;;;;6.03;1.60;;;10.90;99.90;;;;;;5068110;28;20558;-72
2023/03/17 10:03:23;;;;;;;3.22;1.50;;;11.00;99.90;;;;;;5064058;28;20044;-72
2023/03/17 10:05:48;;;;;;;3.38;1.88;;;11.00;99.90;;;;;;5071534;28;20561;-72
2023/03/17 10:08:27;;;;;;;6.18;1.48;;;11.10;99.90;;;;;;5068704;28;20077;-71
2023/03/17 10:11:08;;;;;;;4.55;1.63;;;11.10;99.90;;;;;;5082868;28;20083;-71
2023/03/17 10:13:51;;;;;;;3.85;1.48;;;11.20;99.90;;;;;;5062558;28;20762;-74
2023/03/17 10:16:20;;;;;;;3.95;1.40;;;11.20;99.90;;;;;;5068559;28;20290;-72
2023/03/17 10:18:52;;;;;;;3.72;1.77;;;11.20;99.90;;;;;;5063768;28;20040;-74
2023/03/17 10:21:23;;;;;;;3.08;1.50;;;11.20;99.90;;;;;;5066399;28;20131;-73
2023/03/17 10:23:49;;;;;;;3.13;1.70;;;11.30;99.90;;;;;;5083283;27;20036;-74
2023/03/17 10:26:32;;;;;;;4.43;1.98;;;11.40;99.90;;;;;;5069566;28;20052;-75
2023/03/17 10:29:03;;;;;;;5.57;1.65;;;11.50;99.90;;;;;;5068239;28;20064;-73
2023/03/17 10:31:31;;;;;;;3.72;1.70;;;11.50;99.90;;;;;;5064837;28;20093;-72
2023/03/17 10:34:14;;;;;;;5.03;1.90;;;11.40;99.90;;;;;;5072091;28;20039;-72
2023/03/17 10:36:49;;;;;;;3.97;1.88;;;11.40;99.90;;;;;;5051595;28;20066;-71
2023/03/17 10:39:21;;;;;;;4.43;2.10;;;11.50;99.90;;;;;;5086242;27;20048;-71
2023/03/17 10:42:00;;;;;;;3.45;1.95;;;11.50;99.90;;;;;;5073815;28;20040;-71
2023/03/17 10:44:38;;;;;;;3.33;1.65;;;11.50;99.90;;;;;;5056252;28;20038;-71
2023/03/17 10:47:03;;;;;;;3.00;1.73;;;11.50;99.90;;;;;;5096514;27;20071;-71
2023/03/17 10:49:35;;;;;;;6.15;1.70;;;11.60;99.90;;;;;;5070786;28;20036;-71
2023/03/17 10:52:15;;;;;;;3.45;1.45;;;11.60;99.90;;;;;;5072271;28;20125;-71
2023/03/17 10:54:47;;;;;;;3.38;1.60;;;11.60;99.90;;;;;;5050060;28;20565;-71
2023/03/17 10:57:14;;;;;;;3.45;1.30;;;11.60;99.90;;;;;;5100254;27;20386;-71
2023/03/17 10:59:49;;;;;;;3.67;1.80;;;11.70;99.90;;;;;;5071410;28;20334;-71
2023/03/17 11:02:19;;;;;;;3.42;1.60;;;11.70;99.90;;;;;;5068725;28;20047;-71
2023/03/17 11:04:45;;;;;;;2.35;1.17;;;11.70;99.90;;;;;;5053852;28;20232;-71
2023/03/17 11:07:18;;;;;;;2.80;1.33;;;11.70;99.90;;;;;;5073108;28;20040;-71
2023/03/17 11:09:54;;;;;;;4.45;2.03;;;11.80;99.90;;;;;;5066283;28;20062;-71
2023/03/17 11:12:36;;;;;;;3.08;1.67;;;11.90;99.90;;;;;;5094522;27;20060;-71
2023/03/17 11:15:05;;;;;;;9.45;2.13;;;11.90;99.90;;;;;;5066288;28;20458;-71
2023/03/17 11:17:54;;;;;;;3.60;1.48;;;12.00;99.90;;;;;;5063883;28;20048;-71
2023/03/17 11:20:46;;;;;;;4.32;1.70;;;12.10;99.90;;;;;;5049507;28;20040;-71
2023/03/17 11:23:39;;;;;;;3.58;1.60;;;12.10;99.90;;;;;;5095636;27;21650;-70
2023/03/17 11:26:42;;;;;;;6.22;2.05;;;12.20;99.90;;;;;;5069687;28;20112;-71
2023/03/17 11:29:29;;;;;;;3.80;2.05;;;12.30;99.90;;;;;;5060509;28;20317;-71
2023/03/17 11:32:03;;;;;;;4.68;1.90;;;12.50;99.90;;;;;;5067530;28;20375;-71
2023/03/17 11:34:37;;;;;;;3.17;1.70;;;12.50;99.90;;;;;;5085137;27;20403;-71
2023/03/17 11:37:21;;;;;;;3.92;1.98;;;12.60;99.90;;;;;;5071477;28;20048;-71
2023/03/17 11:39:59;;;;;;;2.88;1.42;;;12.60;99.90;;;;;;5069772;28;20037;-71
2023/03/17 11:42:32;;;;;;;4.57;1.75;;;12.70;99.90;;;;;;5069722;28;20490;-71
2023/03/17 11:45:08;;;;;;;3.88;1.90;;;12.70;99.90;;;;;;5064808;28;20079;-71
2023/03/17 11:47:46;;;;;;;4.63;1.90;;;12.80;99.90;;;;;;5071056;28;20073;-73
2023/03/17 11:50:33;;;;;;;6.50;1.83;;;12.80;99.90;;;;;;5069671;28;20047;-71
2023/03/17 11:53:23;;;;;;;3.72;1.80;;;13.00;99.90;;;;;;5069927;28;20032;-71
2023/03/17 11:55:56;;;;;;;4.00;1.85;;;13.10;99.90;;;;;;5100908;27;20050;-71
2023/03/17 11:58:34;;;;;;;3.25;1.77;;;13.20;99.90;;;;;;5067461;28;20113;-71
2023/03/17 12:01:02;;;;;;;3.50;1.83;;;13.30;99.90;;;;;;5067575;28;20028;-71
2023/03/17 12:03:49;;;;;;;4.60;2.20;;;13.30;99.90;;;;;;5090580;28;20040;-71
2023/03/17 12:06:34;;;;;;;4.70;1.92;;;13.40;99.90;;;;;;5097802;27;20123;-74
2023/03/17 12:09:06;;;;;;;4.07;1.98;;;13.50;99.90;;;;;;5066397;28;20052;-71
2023/03/17 12:11:38;;;;;;;3.88;1.70;;;13.50;99.90;;;;;;5071439;28;20029;-71
2023/03/17 12:14:19;;;;;;;4.43;1.98;;;13.50;99.90;;;;;;5072210;28;20188;-71
2023/03/17 12:16:51;;;;;;;6.25;2.13;;;13.60;99.90;;;;;;5076374;28;20404;-71
2023/03/17 12:19:22;;;;;;;3.85;2.20;;;13.60;99.90;;;;;;5072408;28;20079;-71
2023/03/17 12:22:10;;;;;;;5.30;1.65;;;13.60;99.90;;;;;;5068681;28;20048;-71
2023/03/17 12:25:07;;;;;;;4.43;1.80;;;13.60;99.90;;;;;;5063841;28;20048;-71
2023/03/17 12:27:48;;;;;;;4.03;2.30;;;13.70;99.90;;;;;;5068324;28;20048;-71
2023/03/17 12:30:44;;;;;;;4.05;1.80;;;13.70;99.90;;;;;;5067917;28;20410;-71
2023/03/17 12:33:20;;;;;;;4.03;2.03;;;13.70;99.90;;;;;;5101376;28;20071;-71
2023/03/17 12:35:45;;;;;;;4.78;1.60;;;13.70;99.90;;;;;;5066398;28;20295;-71
2023/03/17 12:38:30;;;;;;;3.97;2.10;;;13.70;99.90;;;;;;5068588;28;20039;-71
2023/03/17 12:41:04;;;;;;;4.22;2.00;;;13.70;99.90;;;;;;5053454;28;20060;-71
2023/03/17 12:43:38;;;;;;;4.47;1.88;;;13.70;99.90;;;;;;5085029;28;20132;-71
2023/03/17 12:46:30;;;;;;;5.45;1.98;;;13.70;99.90;;;;;;5049775;28;20072;-71
2023/03/17 12:49:28;;;;;;;6.78;2.10;;;13.80;99.90;;;;;;5069173;28;20123;-71
2023/03/17 12:52:05;;;;;;;4.75;1.67;;;13.70;99.90;;;;;;5052398;28;20390;-71
2023/03/17 12:54:35;;;;;;;4.93;2.00;;;13.80;99.90;;;;;;5081419;28;20036;-71
2023/03/17 12:57:26;;;;;;;5.07;1.90;;;13.80;99.90;;;;;;5065443;28;20040;-71
2023/03/17 13:00:28;;;;;;;6.55;2.20;;;13.80;99.90;;;;;;5064968;28;20123;-71
2023/03/17 13:03:22;;;;;;;5.72;2.13;;;13.70;99.90;;;;;;5073008;28;20111;-71
2023/03/17 13:05:51;;;;;;;4.10;1.55;;;13.80;99.90;;;;;;5101913;27;20056;-71
2023/03/17 13:08:41;;;;;;;5.85;2.03;;;13.80;99.90;;;;;;5106643;27;20041;-70